sensor_id;sensor_type;location;lat;lon;timestamp;P1;durP1;ratioP1;P2;durP2;ratioP2
21213;SDS011;10764;50.850;2.904;2023-07-28T00:01:36;346.98;;;315.60;;
21213;SDS011;10764;50.850;2.904;2023-07-28T00:04:03;370.60;;;337.27;;
21213;SDS011;10764;50.850;2.904;2023-07-28T00:06:33;344.38;;;313.27;;
21213;SDS011;10764;50.850;2.904;2023-07-28T00:09:01;365.10;;;332.10;;
21213;SDS011;10764;50.850;2.904;2023-07-28T00:11:28;350.27;;;318.67;;
21213;SDS011;10764;50.850;2.904;2023-07-28T00:13:55;387.13;;;351.85;;
21213;SDS011;10764;50.850;2.904;2023-07-28T00:16:22;399.63;;;363.17;;
21213;SDS011;10764;50.850;2.904;2023-07-28T00:18:49;419.33;;;381.13;;
21213;SDS011;10764;50.850;2.904;2023-07-28T00:21:15;441.17;;;400.37;;
21213;SDS011;10764;50.850;2.904;2023-07-28T00:23:42;382.92;;;348.50;;
21213;SDS011;10764;50.850;2.904;2023-07-28T00:26:09;479.40;;;435.00;;
21213;SDS011;10764;50.850;2.904;2023-07-28T00:28:36;463.63;;;420.77;;
21213;SDS011;10764;50.850;2.904;2023-07-28T00:31:02;462.55;;;419.60;;
21213;SDS011;10764;50.850;2.904;2023-07-28T00:33:29;444.52;;;403.48;;
21213;SDS011;10764;50.850;2.904;2023-07-28T00:35:56;450.40;;;408.75;;
21213;SDS011;10764;50.850;2.904;2023-07-28T00:38:24;305.77;;;279.07;;
21213;SDS011;10764;50.850;2.904;2023-07-28T00:40:53;327.20;;;298.60;;
21213;SDS011;10764;50.850;2.904;2023-07-28T00:43:20;287.23;;;262.38;;
21213;SDS011;10764;50.850;2.904;2023-07-28T00:45:46;309.02;;;282.08;;
21213;SDS011;10764;50.850;2.904;2023-07-28T00:48:14;333.10;;;303.90;;
21213;SDS011;10764;50.850;2.904;2023-07-28T00:50:47;307.23;;;280.55;;
21213;SDS011;10764;50.850;2.904;2023-07-28T00:53:15;333.67;;;304.38;;
21213;SDS011;10764;50.850;2.904;2023-07-28T00:55:42;385.55;;;350.38;;
21213;SDS011;10764;50.850;2.904;2023-07-28T00:58:09;413.23;;;375.00;;
21213;SDS011;10764;50.850;2.904;2023-07-28T01:00:36;373.58;;;340.10;;
21213;SDS011;10764;50.850;2.904;2023-07-28T01:03:03;319.45;;;291.67;;
21213;SDS011;10764;50.850;2.904;2023-07-28T01:08:30;309.73;;;282.58;;
21213;SDS011;10764;50.850;2.904;2023-07-28T01:11:02;349.42;;;318.58;;
21213;SDS011;10764;50.850;2.904;2023-07-28T01:13:29;373.45;;;339.50;;
21213;SDS011;10764;50.850;2.904;2023-07-28T01:15:56;343.85;;;313.40;;
21213;SDS011;10764;50.850;2.904;2023-07-28T01:18:24;330.88;;;301.75;;
21213;SDS011;10764;50.850;2.904;2023-07-28T01:20:51;191.82;;;175.32;;
21213;SDS011;10764;50.850;2.904;2023-07-28T01:26:11;261.90;;;239.88;;
21213;SDS011;10764;50.850;2.904;2023-07-28T01:28:41;473.52;;;428.48;;
21213;SDS011;10764;50.850;2.904;2023-07-28T01:31:10;533.92;;;484.13;;
21213;SDS011;10764;50.850;2.904;2023-07-28T01:33:37;443.07;;;400.97;;
21213;SDS011;10764;50.850;2.904;2023-07-28T01:36:04;332.33;;;303.10;;
21213;SDS011;10764;50.850;2.904;2023-07-28T01:38:31;470.50;;;425.73;;
21213;SDS011;10764;50.850;2.904;2023-07-28T01:40:58;384.80;;;348.70;;
21213;SDS011;10764;50.850;2.904;2023-07-28T01:43:25;368.92;;;335.15;;
21213;SDS011;10764;50.850;2.904;2023-07-28T01:45:51;403.00;;;365.00;;
21213;SDS011;10764;50.850;2.904;2023-07-28T01:48:18;416.88;;;377.55;;
21213;SDS011;10764;50.850;2.904;2023-07-28T01:50:45;537.53;;;486.35;;
21213;SDS011;10764;50.850;2.904;2023-07-28T01:53:12;470.42;;;425.48;;
21213;SDS011;10764;50.850;2.904;2023-07-28T01:55:39;509.55;;;461.13;;
21213;SDS011;10764;50.850;2.904;2023-07-28T01:58:06;502.60;;;454.67;;
21213;SDS011;10764;50.850;2.904;2023-07-28T02:00:33;404.08;;;366.27;;
21213;SDS011;10764;50.850;2.904;2023-07-28T02:02:59;480.37;;;434.43;;
21213;SDS011;10764;50.850;2.904;2023-07-28T02:05:29;509.00;;;460.83;;
21213;SDS011;10764;50.850;2.904;2023-07-28T02:07:56;537.60;;;486.45;;
21213;SDS011;10764;50.850;2.904;2023-07-28T02:10:23;567.38;;;513.80;;
21213;SDS011;10764;50.850;2.904;2023-07-28T02:12:51;603.13;;;546.83;;
21213;SDS011;10764;50.850;2.904;2023-07-28T02:15:18;587.78;;;532.67;;
21213;SDS011;10764;50.850;2.904;2023-07-28T02:17:45;628.42;;;570.25;;
21213;SDS011;10764;50.850;2.904;2023-07-28T02:20:12;638.60;;;579.80;;
21213;SDS011;10764;50.850;2.904;2023-07-28T02:22:42;560.55;;;507.42;;
21213;SDS011;10764;50.850;2.904;2023-07-28T02:25:09;511.92;;;463.02;;
21213;SDS011;10764;50.850;2.904;2023-07-28T02:27:37;475.73;;;430.40;;
21213;SDS011;10764;50.850;2.904;2023-07-28T02:30:05;474.50;;;429.27;;
21213;SDS011;10764;50.850;2.904;2023-07-28T02:32:32;402.60;;;364.88;;
21213;SDS011;10764;50.850;2.904;2023-07-28T02:34:59;406.90;;;369.10;;
21213;SDS011;10764;50.850;2.904;2023-07-28T02:37:26;451.47;;;408.57;;
21213;SDS011;10764;50.850;2.904;2023-07-28T02:39:53;479.23;;;433.15;;
21213;SDS011;10764;50.850;2.904;2023-07-28T02:42:20;401.55;;;363.92;;
21213;SDS011;10764;50.850;2.904;2023-07-28T02:44:47;340.00;;;309.07;;
21213;SDS011;10764;50.850;2.904;2023-07-28T02:47:14;383.20;;;347.45;;
21213;SDS011;10764;50.850;2.904;2023-07-28T02:49:40;322.05;;;293.65;;
21213;SDS011;10764;50.850;2.904;2023-07-28T02:52:09;373.27;;;338.70;;
21213;SDS011;10764;50.850;2.904;2023-07-28T02:54:36;376.65;;;341.50;;
21213;SDS011;10764;50.850;2.904;2023-07-28T02:57:03;312.63;;;284.77;;
21213;SDS011;10764;50.850;2.904;2023-07-28T02:59:30;258.80;;;237.05;;
21213;SDS011;10764;50.850;2.904;2023-07-28T03:01:57;279.05;;;255.20;;
21213;SDS011;10764;50.850;2.904;2023-07-28T03:04:24;294.65;;;268.80;;
21213;SDS011;10764;50.850;2.904;2023-07-28T03:07:09;304.77;;;277.52;;
21213;SDS011;10764;50.850;2.904;2023-07-28T03:09:38;337.52;;;306.85;;
21213;SDS011;10764;50.850;2.904;2023-07-28T03:12:05;382.63;;;347.33;;
21213;SDS011;10764;50.850;2.904;2023-07-28T03:14:32;354.38;;;322.02;;
21213;SDS011;10764;50.850;2.904;2023-07-28T03:16:59;386.00;;;350.08;;
21213;SDS011;10764;50.850;2.904;2023-07-28T03:19:26;415.33;;;376.17;;
21213;SDS011;10764;50.850;2.904;2023-07-28T03:21:53;375.85;;;340.90;;
21213;SDS011;10764;50.850;2.904;2023-07-28T03:24:20;425.30;;;385.00;;
21213;SDS011;10764;50.850;2.904;2023-07-28T03:26:46;445.83;;;403.40;;
21213;SDS011;10764;50.850;2.904;2023-07-28T03:29:13;407.75;;;369.40;;
21213;SDS011;10764;50.850;2.904;2023-07-28T03:31:40;393.30;;;356.50;;
21213;SDS011;10764;50.850;2.904;2023-07-28T03:34:07;456.23;;;413.10;;
21213;SDS011;10764;50.850;2.904;2023-07-28T03:36:34;349.30;;;317.08;;
21213;SDS011;10764;50.850;2.904;2023-07-28T03:39:01;397.17;;;359.80;;
21213;SDS011;10764;50.850;2.904;2023-07-28T03:41:29;430.80;;;390.33;;
21213;SDS011;10764;50.850;2.904;2023-07-28T03:43:56;359.30;;;325.88;;
21213;SDS011;10764;50.850;2.904;2023-07-28T03:46:22;380.37;;;344.87;;
21213;SDS011;10764;50.850;2.904;2023-07-28T03:48:49;441.50;;;399.85;;
21213;SDS011;10764;50.850;2.904;2023-07-28T03:51:16;428.73;;;388.17;;
21213;SDS011;10764;50.850;2.904;2023-07-28T03:53:43;434.02;;;393.15;;
21213;SDS011;10764;50.850;2.904;2023-07-28T03:56:10;448.35;;;406.20;;
21213;SDS011;10764;50.850;2.904;2023-07-28T03:58:37;252.27;;;230.73;;
21213;SDS011;10764;50.850;2.904;2023-07-28T04:01:04;346.42;;;314.63;;
21213;SDS011;10764;50.850;2.904;2023-07-28T04:03:33;499.02;;;452.00;;
21213;SDS011;10764;50.850;2.904;2023-07-28T04:06:00;487.85;;;441.40;;
21213;SDS011;10764;50.850;2.904;2023-07-28T04:08:33;470.75;;;426.25;;
21213;SDS011;10764;50.850;2.904;2023-07-28T04:10:59;536.33;;;485.67;;
21213;SDS011;10764;50.850;2.904;2023-07-28T04:13:26;510.23;;;461.45;;
21213;SDS011;10764;50.850;2.904;2023-07-28T04:15:53;494.88;;;447.60;;
21213;SDS011;10764;50.850;2.904;2023-07-28T04:18:21;518.60;;;469.70;;
21213;SDS011;10764;50.850;2.904;2023-07-28T04:20:49;528.72;;;478.70;;
21213;SDS011;10764;50.850;2.904;2023-07-28T04:23:16;447.75;;;405.25;;
21213;SDS011;10764;50.850;2.904;2023-07-28T04:25:43;451.30;;;408.52;;
21213;SDS011;10764;50.850;2.904;2023-07-28T04:28:10;424.30;;;384.13;;
21213;SDS011;10764;50.850;2.904;2023-07-28T04:30:37;413.63;;;374.50;;
21213;SDS011;10764;50.850;2.904;2023-07-28T04:33:04;410.17;;;371.75;;
21213;SDS011;10764;50.850;2.904;2023-07-28T04:35:36;418.73;;;378.73;;
21213;SDS011;10764;50.850;2.904;2023-07-28T04:38:23;388.27;;;351.57;;
21213;SDS011;10764;50.850;2.904;2023-07-28T04:40:54;434.42;;;393.48;;
21213;SDS011;10764;50.850;2.904;2023-07-28T04:43:29;423.33;;;383.10;;
21213;SDS011;10764;50.850;2.904;2023-07-28T04:45:56;434.77;;;393.70;;
21213;SDS011;10764;50.850;2.904;2023-07-28T04:48:24;416.52;;;377.23;;
21213;SDS011;10764;50.850;2.904;2023-07-28T04:50:51;427.02;;;386.70;;
21213;SDS011;10764;50.850;2.904;2023-07-28T04:53:53;442.67;;;400.87;;
21213;SDS011;10764;50.850;2.904;2023-07-28T04:56:23;428.98;;;388.13;;
21213;SDS011;10764;50.850;2.904;2023-07-28T04:58:49;455.98;;;412.75;;
21213;SDS011;10764;50.850;2.904;2023-07-28T05:01:16;445.40;;;403.30;;
21213;SDS011;10764;50.850;2.904;2023-07-28T05:03:45;440.35;;;398.40;;
21213;SDS011;10764;50.850;2.904;2023-07-28T05:06:22;392.73;;;355.55;;
21213;SDS011;10764;50.850;2.904;2023-07-28T05:08:49;427.52;;;387.08;;
21213;SDS011;10764;50.850;2.904;2023-07-28T05:11:23;461.17;;;417.50;;
21213;SDS011;10764;50.850;2.904;2023-07-28T05:13:49;393.60;;;356.70;;
21213;SDS011;10764;50.850;2.904;2023-07-28T05:16:16;337.55;;;306.33;;
21213;SDS011;10764;50.850;2.904;2023-07-28T05:19:01;298.33;;;270.90;;
21213;SDS011;10764;50.850;2.904;2023-07-28T05:21:49;306.45;;;278.25;;
21213;SDS011;10764;50.850;2.904;2023-07-28T05:24:20;301.80;;;274.02;;
21213;SDS011;10764;50.850;2.904;2023-07-28T05:26:46;271.42;;;246.80;;
21213;SDS011;10764;50.850;2.904;2023-07-28T05:29:14;291.58;;;264.65;;
21213;SDS011;10764;50.850;2.904;2023-07-28T05:31:42;290.60;;;264.35;;
21213;SDS011;10764;50.850;2.904;2023-07-28T05:34:20;269.05;;;245.02;;
21213;SDS011;10764;50.850;2.904;2023-07-28T05:36:47;241.32;;;219.80;;
21213;SDS011;10764;50.850;2.904;2023-07-28T05:39:14;213.80;;;195.40;;
21213;SDS011;10764;50.850;2.904;2023-07-28T05:41:43;213.13;;;194.88;;
21213;SDS011;10764;50.850;2.904;2023-07-28T05:44:12;236.32;;;215.98;;
21213;SDS011;10764;50.850;2.904;2023-07-28T05:46:39;233.52;;;213.70;;
21213;SDS011;10764;50.850;2.904;2023-07-28T05:49:06;255.38;;;233.27;;
21213;SDS011;10764;50.850;2.904;2023-07-28T05:51:34;261.23;;;238.77;;
21213;SDS011;10764;50.850;2.904;2023-07-28T05:54:01;282.17;;;258.02;;
21213;SDS011;10764;50.850;2.904;2023-07-28T05:56:28;325.03;;;296.07;;
21213;SDS011;10764;50.850;2.904;2023-07-28T05:58:55;317.27;;;289.05;;
21213;SDS011;10764;50.850;2.904;2023-07-28T06:01:22;339.35;;;308.25;;
21213;SDS011;10764;50.850;2.904;2023-07-28T06:04:07;441.77;;;399.85;;
21213;SDS011;10764;50.850;2.904;2023-07-28T06:06:40;530.95;;;480.85;;
21213;SDS011;10764;50.850;2.904;2023-07-28T06:09:08;502.03;;;454.60;;
21213;SDS011;10764;50.850;2.904;2023-07-28T06:11:36;530.65;;;480.40;;
21213;SDS011;10764;50.850;2.904;2023-07-28T06:14:03;506.25;;;458.10;;
21213;SDS011;10764;50.850;2.904;2023-07-28T06:16:33;439.02;;;397.25;;
21213;SDS011;10764;50.850;2.904;2023-07-28T06:19:00;424.42;;;384.92;;
21213;SDS011;10764;50.850;2.904;2023-07-28T06:21:27;429.92;;;389.95;;
21213;SDS011;10764;50.850;2.904;2023-07-28T06:23:54;443.10;;;402.00;;
21213;SDS011;10764;50.850;2.904;2023-07-28T06:26:20;518.78;;;469.98;;
21213;SDS011;10764;50.850;2.904;2023-07-28T06:28:47;529.65;;;479.48;;
21213;SDS011;10764;50.850;2.904;2023-07-28T06:31:14;557.23;;;505.17;;
21213;SDS011;10764;50.850;2.904;2023-07-28T06:33:41;583.67;;;528.65;;
21213;SDS011;10764;50.850;2.904;2023-07-28T06:36:08;613.03;;;556.03;;
21213;SDS011;10764;50.850;2.904;2023-07-28T06:38:35;636.83;;;577.92;;
21213;SDS011;10764;50.850;2.904;2023-07-28T06:41:02;532.75;;;482.80;;
21213;SDS011;10764;50.850;2.904;2023-07-28T06:43:29;540.25;;;489.17;;
21213;SDS011;10764;50.850;2.904;2023-07-28T06:46:00;570.03;;;516.42;;
21213;SDS011;10764;50.850;2.904;2023-07-28T06:48:27;505.33;;;457.48;;
21213;SDS011;10764;50.850;2.904;2023-07-28T06:50:53;523.78;;;474.33;;
21213;SDS011;10764;50.850;2.904;2023-07-28T06:53:21;563.23;;;510.23;;
21213;SDS011;10764;50.850;2.904;2023-07-28T06:55:48;527.03;;;477.80;;
21213;SDS011;10764;50.850;2.904;2023-07-28T06:58:15;453.37;;;411.67;;
21213;SDS011;10764;50.850;2.904;2023-07-28T07:00:42;423.52;;;384.98;;
21213;SDS011;10764;50.850;2.904;2023-07-28T07:03:09;440.45;;;399.83;;
21213;SDS011;10764;50.850;2.904;2023-07-28T07:05:36;468.35;;;424.98;;
21213;SDS011;10764;50.850;2.904;2023-07-28T07:08:04;375.20;;;341.25;;
21213;SDS011;10764;50.850;2.904;2023-07-28T07:10:31;404.75;;;367.85;;
21213;SDS011;10764;50.850;2.904;2023-07-28T07:12:58;376.33;;;342.63;;
21213;SDS011;10764;50.850;2.904;2023-07-28T07:15:25;375.67;;;341.88;;
21213;SDS011;10764;50.850;2.904;2023-07-28T07:17:51;336.70;;;306.77;;
21213;SDS011;10764;50.850;2.904;2023-07-28T07:20:18;379.85;;;345.58;;
21213;SDS011;10764;50.850;2.904;2023-07-28T07:22:45;348.90;;;317.92;;
21213;SDS011;10764;50.850;2.904;2023-07-28T07:25:12;352.17;;;320.83;;
21213;SDS011;10764;50.850;2.904;2023-07-28T07:27:39;341.95;;;311.27;;
21213;SDS011;10764;50.850;2.904;2023-07-28T07:30:06;377.50;;;343.53;;
21213;SDS011;10764;50.850;2.904;2023-07-28T07:32:35;422.55;;;384.00;;
21213;SDS011;10764;50.850;2.904;2023-07-28T07:35:02;358.90;;;326.85;;
21213;SDS011;10764;50.850;2.904;2023-07-28T07:37:29;389.00;;;353.80;;
21213;SDS011;10764;50.850;2.904;2023-07-28T07:39:58;430.17;;;390.80;;
21213;SDS011;10764;50.850;2.904;2023-07-28T07:42:28;344.27;;;313.42;;
21213;SDS011;10764;50.850;2.904;2023-07-28T07:45:08;409.63;;;372.17;;
21213;SDS011;10764;50.850;2.904;2023-07-28T07:47:36;494.55;;;448.88;;
21213;SDS011;10764;50.850;2.904;2023-07-28T07:50:09;511.55;;;464.17;;
21213;SDS011;10764;50.850;2.904;2023-07-28T07:52:37;611.05;;;554.63;;
21213;SDS011;10764;50.850;2.904;2023-07-28T07:55:13;584.63;;;530.47;;
21213;SDS011;10764;50.850;2.904;2023-07-28T07:57:40;691.83;;;629.38;;
21213;SDS011;10764;50.850;2.904;2023-07-28T08:00:07;617.28;;;560.55;;
21213;SDS011;10764;50.850;2.904;2023-07-28T08:02:40;715.92;;;651.65;;
21213;SDS011;10764;50.850;2.904;2023-07-28T08:05:11;720.88;;;656.15;;
21213;SDS011;10764;50.850;2.904;2023-07-28T08:07:38;401.30;;;365.00;;
21213;SDS011;10764;50.850;2.904;2023-07-28T08:10:05;579.97;;;526.33;;
21213;SDS011;10764;50.850;2.904;2023-07-28T08:12:32;907.80;;;827.38;;
21213;SDS011;10764;50.850;2.904;2023-07-28T08:14:59;843.50;;;768.43;;
21213;SDS011;10764;50.850;2.904;2023-07-28T08:19:56;574.55;;;522.03;;
21213;SDS011;10764;50.850;2.904;2023-07-28T08:22:22;835.85;;;761.47;;
21213;SDS011;10764;50.850;2.904;2023-07-28T08:24:49;848.00;;;772.97;;
21213;SDS011;10764;50.850;2.904;2023-07-28T08:27:16;605.13;;;550.10;;
21213;SDS011;10764;50.850;2.904;2023-07-28T08:29:43;315.65;;;287.42;;
21213;SDS011;10764;50.850;2.904;2023-07-28T08:32:09;336.83;;;306.50;;
21213;SDS011;10764;50.850;2.904;2023-07-28T08:34:36;362.08;;;329.38;;
21213;SDS011;10764;50.850;2.904;2023-07-28T08:37:03;473.40;;;429.67;;
21213;SDS011;10764;50.850;2.904;2023-07-28T08:39:30;409.55;;;372.00;;
21213;SDS011;10764;50.850;2.904;2023-07-28T08:41:57;447.67;;;407.15;;
21213;SDS011;10764;50.850;2.904;2023-07-28T08:44:26;640.30;;;582.45;;
21213;SDS011;10764;50.850;2.904;2023-07-28T08:46:56;184.35;;;168.18;;
21213;SDS011;10764;50.850;2.904;2023-07-28T08:49:23;124.80;;;114.30;;
21213;SDS011;10764;50.850;2.904;2023-07-28T08:51:50;114.57;;;104.88;;
21213;SDS011;10764;50.850;2.904;2023-07-28T08:54:17;95.95;;;88.00;;
21213;SDS011;10764;50.850;2.904;2023-07-28T08:56:44;76.53;;;70.22;;
21213;SDS011;10764;50.850;2.904;2023-07-28T08:59:11;71.03;;;65.28;;
21213;SDS011;10764;50.850;2.904;2023-07-28T09:01:41;59.45;;;54.58;;
21213;SDS011;10764;50.850;2.904;2023-07-28T09:04:10;69.90;;;64.20;;
21213;SDS011;10764;50.850;2.904;2023-07-28T09:06:37;52.30;;;48.20;;
21213;SDS011;10764;50.850;2.904;2023-07-28T09:09:07;55.87;;;51.47;;
21213;SDS011;10764;50.850;2.904;2023-07-28T09:11:43;65.75;;;60.35;;
21213;SDS011;10764;50.850;2.904;2023-07-28T09:14:11;65.30;;;60.05;;
21213;SDS011;10764;50.850;2.904;2023-07-28T09:16:39;53.08;;;48.92;;
21213;SDS011;10764;50.850;2.904;2023-07-28T09:19:07;50.75;;;46.83;;
21213;SDS011;10764;50.850;2.904;2023-07-28T09:21:35;58.10;;;53.50;;
21213;SDS011;10764;50.850;2.904;2023-07-28T09:24:05;62.65;;;57.63;;
21213;SDS011;10764;50.850;2.904;2023-07-28T09:26:40;74.80;;;68.72;;
21213;SDS011;10764;50.850;2.904;2023-07-28T09:29:17;89.73;;;82.43;;
21213;SDS011;10764;50.850;2.904;2023-07-28T09:31:48;102.70;;;94.20;;
21213;SDS011;10764;50.850;2.904;2023-07-28T09:34:26;95.38;;;87.50;;
21213;SDS011;10764;50.850;2.904;2023-07-28T09:36:54;92.28;;;84.68;;
21213;SDS011;10764;50.850;2.904;2023-07-28T09:39:22;150.60;;;137.65;;
21213;SDS011;10764;50.850;2.904;2023-07-28T09:41:49;295.98;;;269.33;;
21213;SDS011;10764;50.850;2.904;2023-07-28T09:44:16;385.40;;;350.13;;
21213;SDS011;10764;50.850;2.904;2023-07-28T09:49:31;490.52;;;445.10;;
21213;SDS011;10764;50.850;2.904;2023-07-28T09:52:10;722.28;;;657.17;;
21213;SDS011;10764;50.850;2.904;2023-07-28T09:54:41;580.33;;;527.03;;
21213;SDS011;10764;50.850;2.904;2023-07-28T09:57:12;815.42;;;743.00;;
21213;SDS011;10764;50.850;2.904;2023-07-28T09:59:43;318.10;;;289.27;;
21213;SDS011;10764;50.850;2.904;2023-07-28T10:02:13;136.60;;;125.00;;
21213;SDS011;10764;50.850;2.904;2023-07-28T10:04:44;120.93;;;110.87;;
21213;SDS011;10764;50.850;2.904;2023-07-28T10:07:11;622.88;;;566.17;;
21213;SDS011;10764;50.850;2.904;2023-07-28T10:09:39;469.67;;;426.23;;
21213;SDS011;10764;50.850;2.904;2023-07-28T10:12:08;177.75;;;161.98;;
21213;SDS011;10764;50.850;2.904;2023-07-28T10:14:46;111.82;;;102.35;;
21213;SDS011;10764;50.850;2.904;2023-07-28T10:17:16;132.90;;;121.63;;
21213;SDS011;10764;50.850;2.904;2023-07-28T10:19:43;148.63;;;135.77;;
21213;SDS011;10764;50.850;2.904;2023-07-28T10:22:11;36.17;;;33.38;;
21213;SDS011;10764;50.850;2.904;2023-07-28T10:24:54;148.27;;;135.18;;
21213;SDS011;10764;50.850;2.904;2023-07-28T10:28:05;124.47;;;113.60;;
21213;SDS011;10764;50.850;2.904;2023-07-28T10:30:13;93.40;;;85.65;;
21213;SDS011;10764;50.850;2.904;2023-07-28T10:32:41;91.43;;;83.88;;
21213;SDS011;10764;50.850;2.904;2023-07-28T10:37:43;81.97;;;75.10;;
21213;SDS011;10764;50.850;2.904;2023-07-28T10:42:57;106.90;;;97.90;;
21213;SDS011;10764;50.850;2.904;2023-07-28T10:45:25;69.40;;;63.80;;
21213;SDS011;10764;50.850;2.904;2023-07-28T10:47:54;85.07;;;78.07;;
21213;SDS011;10764;50.850;2.904;2023-07-28T10:50:22;82.28;;;75.50;;
21213;SDS011;10764;50.850;2.904;2023-07-28T10:52:49;78.72;;;72.32;;
21213;SDS011;10764;50.850;2.904;2023-07-28T10:55:17;172.10;;;156.98;;
21213;SDS011;10764;50.850;2.904;2023-07-28T10:57:47;379.00;;;344.20;;
21213;SDS011;10764;50.850;2.904;2023-07-28T11:00:18;335.83;;;305.00;;
21213;SDS011;10764;50.850;2.904;2023-07-28T11:02:51;402.88;;;365.65;;
21213;SDS011;10764;50.850;2.904;2023-07-28T11:05:20;281.63;;;256.17;;
21213;SDS011;10764;50.850;2.904;2023-07-28T11:07:53;335.67;;;305.33;;
21213;SDS011;10764;50.850;2.904;2023-07-28T11:10:22;336.63;;;306.05;;
21213;SDS011;10764;50.850;2.904;2023-07-28T11:12:49;340.55;;;309.70;;
21213;SDS011;10764;50.850;2.904;2023-07-28T11:15:18;472.20;;;428.40;;
21213;SDS011;10764;50.850;2.904;2023-07-28T11:17:46;449.92;;;407.35;;
21213;SDS011;10764;50.850;2.904;2023-07-28T11:20:18;573.45;;;520.70;;
21213;SDS011;10764;50.850;2.904;2023-07-28T11:22:54;664.03;;;603.93;;
21213;SDS011;10764;50.850;2.904;2023-07-28T11:25:23;441.97;;;402.43;;
21213;SDS011;10764;50.850;2.904;2023-07-28T11:27:51;700.30;;;637.42;;
21213;SDS011;10764;50.850;2.904;2023-07-28T11:30:19;629.63;;;573.90;;
21213;SDS011;10764;50.850;2.904;2023-07-28T11:32:47;736.53;;;670.97;;
21213;SDS011;10764;50.850;2.904;2023-07-28T11:35:16;382.80;;;347.63;;
21213;SDS011;10764;50.850;2.904;2023-07-28T11:37:45;698.10;;;635.45;;
21213;SDS011;10764;50.850;2.904;2023-07-28T11:40:14;782.47;;;713.35;;
21213;SDS011;10764;50.850;2.904;2023-07-28T11:42:46;546.13;;;497.67;;
21213;SDS011;10764;50.850;2.904;2023-07-28T11:45:16;301.87;;;274.80;;
21213;SDS011;10764;50.850;2.904;2023-07-28T11:48:01;362.75;;;330.17;;
21213;SDS011;10764;50.850;2.904;2023-07-28T11:50:34;566.65;;;514.95;;
21213;SDS011;10764;50.850;2.904;2023-07-28T11:53:03;768.83;;;700.53;;
21213;SDS011;10764;50.850;2.904;2023-07-28T11:55:31;838.00;;;764.27;;
21213;SDS011;10764;50.850;2.904;2023-07-28T11:57:59;797.92;;;727.42;;
21213;SDS011;10764;50.850;2.904;2023-07-28T12:00:31;300.73;;;273.80;;
21213;SDS011;10764;50.850;2.904;2023-07-28T12:03:03;409.10;;;372.80;;
21213;SDS011;10764;50.850;2.904;2023-07-28T12:05:32;710.42;;;646.60;;
21213;SDS011;10764;50.850;2.904;2023-07-28T12:08:00;387.48;;;352.02;;
21213;SDS011;10764;50.850;2.904;2023-07-28T12:10:29;672.85;;;612.10;;
21213;SDS011;10764;50.850;2.904;2023-07-28T12:13:04;716.85;;;652.67;;
21213;SDS011;10764;50.850;2.904;2023-07-28T12:15:39;808.95;;;737.78;;
21213;SDS011;10764;50.850;2.904;2023-07-28T12:18:11;712.88;;;648.83;;
21213;SDS011;10764;50.850;2.904;2023-07-28T12:20:43;1000.40;;;912.95;;
21213;SDS011;10764;50.850;2.904;2023-07-28T12:23:14;985.90;;;899.70;;
21213;SDS011;10764;50.850;2.904;2023-07-28T12:25:45;967.90;;;883.03;;
21213;SDS011;10764;50.850;2.904;2023-07-28T12:28:12;205.85;;;188.18;;
21213;SDS011;10764;50.850;2.904;2023-07-28T12:30:42;1031.82;;;942.20;;
21213;SDS011;10764;50.850;2.904;2023-07-28T12:33:10;992.17;;;905.20;;
21213;SDS011;10764;50.850;2.904;2023-07-28T12:35:40;939.85;;;857.50;;
21213;SDS011;10764;50.850;2.904;2023-07-28T12:38:09;892.45;;;814.05;;
21213;SDS011;10764;50.850;2.904;2023-07-28T12:40:39;903.47;;;824.07;;
21213;SDS011;10764;50.850;2.904;2023-07-28T12:43:09;274.63;;;250.32;;
21213;SDS011;10764;50.850;2.904;2023-07-28T12:45:55;234.65;;;213.88;;
21213;SDS011;10764;50.850;2.904;2023-07-28T12:48:26;209.65;;;191.10;;
21213;SDS011;10764;50.850;2.904;2023-07-28T12:50:53;254.82;;;232.15;;
21213;SDS011;10764;50.850;2.904;2023-07-28T12:53:22;292.55;;;266.23;;
21213;SDS011;10764;50.850;2.904;2023-07-28T12:55:50;357.80;;;324.85;;
21213;SDS011;10764;50.850;2.904;2023-07-28T12:58:20;386.80;;;351.13;;
21213;SDS011;10764;50.850;2.904;2023-07-28T13:00:49;709.53;;;645.95;;
21213;SDS011;10764;50.850;2.904;2023-07-28T13:03:19;563.70;;;512.83;;
21213;SDS011;10764;50.850;2.904;2023-07-28T13:05:46;273.27;;;248.60;;
21213;SDS011;10764;50.850;2.904;2023-07-28T13:08:14;317.00;;;287.90;;
21213;SDS011;10764;50.850;2.904;2023-07-28T13:10:42;670.20;;;609.70;;
21213;SDS011;10764;50.850;2.904;2023-07-28T13:13:12;656.83;;;597.40;;
21213;SDS011;10764;50.850;2.904;2023-07-28T13:15:40;668.80;;;608.00;;
21213;SDS011;10764;50.850;2.904;2023-07-28T13:18:07;534.40;;;484.20;;
21213;SDS011;10764;50.850;2.904;2023-07-28T13:20:34;428.77;;;388.85;;
21213;SDS011;10764;50.850;2.904;2023-07-28T13:23:00;753.60;;;685.85;;
21213;SDS011;10764;50.850;2.904;2023-07-28T13:25:28;893.75;;;814.92;;
21213;SDS011;10764;50.850;2.904;2023-07-28T13:27:55;1146.82;;;999.90;;
21213;SDS011;10764;50.850;2.904;2023-07-28T13:30:21;1158.88;;;999.90;;
21213;SDS011;10764;50.850;2.904;2023-07-28T13:32:49;934.13;;;852.22;;
21213;SDS011;10764;50.850;2.904;2023-07-28T13:35:17;1110.15;;;999.90;;
21213;SDS011;10764;50.850;2.904;2023-07-28T13:37:44;905.15;;;825.35;;
21213;SDS011;10764;50.850;2.904;2023-07-28T13:40:11;651.33;;;592.10;;
21213;SDS011;10764;50.850;2.904;2023-07-28T13:42:39;2.00;;;1.20;;
21213;SDS011;10764;50.850;2.904;2023-07-28T13:45:06;21.63;;;19.92;;
21213;SDS011;10764;50.850;2.904;2023-07-28T13:47:34;903.47;;;823.45;;
21213;SDS011;10764;50.850;2.904;2023-07-28T13:50:01;782.33;;;707.53;;
21213;SDS011;10764;50.850;2.904;2023-07-28T13:52:28;457.42;;;413.52;;
21213;SDS011;10764;50.850;2.904;2023-07-28T13:54:55;2.03;;;1.77;;
21213;SDS011;10764;50.850;2.904;2023-07-28T13:57:25;1.52;;;0.80;;
21213;SDS011;10764;50.850;2.904;2023-07-28T13:59:52;0.80;;;0.50;;
21213;SDS011;10764;50.850;2.904;2023-07-28T14:02:19;1.40;;;0.85;;
21213;SDS011;10764;50.850;2.904;2023-07-28T14:04:46;13.20;;;8.70;;
21213;SDS011;10764;50.850;2.904;2023-07-28T14:07:13;0.85;;;0.50;;
21213;SDS011;10764;50.850;2.904;2023-07-28T14:09:40;432.87;;;392.37;;
21213;SDS011;10764;50.850;2.904;2023-07-28T14:12:07;338.85;;;307.83;;
21213;SDS011;10764;50.850;2.904;2023-07-28T14:14:34;597.10;;;541.93;;
21213;SDS011;10764;50.850;2.904;2023-07-28T14:17:01;240.27;;;218.18;;
21213;SDS011;10764;50.850;2.904;2023-07-28T14:19:27;0.55;;;0.52;;
21213;SDS011;10764;50.850;2.904;2023-07-28T14:21:54;181.52;;;164.48;;
21213;SDS011;10764;50.850;2.904;2023-07-28T14:24:21;292.93;;;267.03;;